Time;durP1;ratioP1;P1;durP2;ratioP2;P2;SDS_P1;SDS_P2;PMS_P1;PMS_P2;Temp;Humidity;BMP_temperature;BMP_pressure;BME280_temperature;BME280_humidity;BME280_pressure;Samples;Min_cycle;Max_cycle;Signal;HPM_P1;HPM_P2
2021/10/27 00:01:49;;;;;;;14.55;10.52;;;;;;;0.55;100.00;93869.53;4976225;28;20046;-80
2021/10/27 00:04:16;;;;;;;16.60;11.23;;;;;;;0.55;100.00;93863.69;4976205;28;20046;-80
2021/10/27 00:06:43;;;;;;;14.27;9.40;;;;;;;0.56;100.00;93867.81;4976187;28;20061;-80
2021/10/27 00:09:10;;;;;;;12.35;8.63;;;;;;;0.52;100.00;93868.06;4975955;28;20050;-80
2021/10/27 00:11:37;;;;;;;12.52;8.85;;;;;;;0.49;100.00;93875.94;4976190;28;20042;-80
2021/10/27 00:14:03;;;;;;;9.80;7.80;;;;;;;0.44;100.00;93874.69;4975804;28;20502;-80
2021/10/27 00:16:30;;;;;;;14.57;8.80;;;;;;;0.41;100.00;93867.41;4975927;28;20047;-80
2021/10/27 00:18:59;;;;;;;12.07;8.93;;;;;;;0.43;100.00;93873.94;4975627;28;20046;-80
2021/10/27 00:21:26;;;;;;;12.60;9.18;;;;;;;0.17;100.00;93840.75;4975987;28;20548;-80
2021/10/27 00:23:53;;;;;;;13.32;9.00;;;;;;;0.35;100.00;93881.34;4975813;28;20089;-80
2021/10/27 00:26:20;;;;;;;10.32;8.05;;;;;;;0.32;100.00;93876.56;4975888;28;20058;-81
2021/10/27 00:28:47;;;;;;;12.15;8.77;;;;;;;0.33;100.00;93878.94;4975800;28;20061;-80
2021/10/27 00:31:14;;;;;;;12.98;8.57;;;;;;;0.32;100.00;93874.81;4975969;28;20061;-80
2021/10/27 00:33:41;;;;;;;13.52;9.05;;;;;;;0.13;100.00;93850.31;4975601;28;20046;-80
2021/10/27 00:36:09;;;;;;;13.13;8.80;;;;;;;0.26;100.00;93860.19;4975888;28;20051;-80
2021/10/27 00:38:36;;;;;;;12.65;8.18;;;;;;;0.26;100.00;93865.22;4974155;28;20054;-80
2021/10/27 00:41:03;;;;;;;14.35;9.10;;;;;;;0.15;100.00;93847.66;4976313;28;20058;-81
2021/10/27 00:43:30;;;;;;;14.82;11.00;;;;;;;0.10;100.00;93838.72;4976272;28;20453;-81
2021/10/27 00:45:57;;;;;;;15.65;10.82;;;;;;;0.06;100.00;93836.59;4976362;28;20055;-81
2021/10/27 00:48:24;;;;;;;15.88;11.50;;;;;;;0.21;100.00;93858.06;4973254;28;20046;-81
2021/10/27 00:50:50;;;;;;;15.00;10.70;;;;;;;0.17;100.00;93856.72;4969872;28;20046;-81
2021/10/27 00:53:19;;;;;;;14.27;9.75;;;;;;;0.13;100.00;93861.22;4969900;28;20094;-80
2021/10/27 00:55:47;;;;;;;15.18;10.35;;;;;;;0.21;100.00;93869.88;4970064;28;20062;-82
2021/10/27 00:58:14;;;;;;;16.20;10.50;;;;;;;0.17;100.00;93868.53;4970305;28;20051;-81
2021/10/27 01:00:42;;;;;;;14.32;10.32;;;;;;;0.05;100.00;93848.44;4971235;28;20110;-80
2021/10/27 01:03:09;;;;;;;18.80;11.70;;;;;;;-0.34;100.00;93788.53;4973873;28;20043;-81
2021/10/27 01:05:37;;;;;;;19.08;12.27;;;;;;;0.03;100.00;93845.25;4973695;28;20046;-81
2021/10/27 01:08:04;;;;;;;23.20;14.05;;;;;;;0.16;100.00;93865.22;4973406;28;20054;-81
2021/10/27 01:10:33;;;;;;;18.27;12.27;;;;;;;0.20;100.00;93875.88;4973440;28;20054;-81
2021/10/27 01:13:00;;;;;;;17.25;12.27;;;;;;;0.13;100.00;93871.31;4973405;28;20076;-80
2021/10/27 01:15:27;;;;;;;25.92;16.23;;;;;;;-0.05;100.00;93852.69;4973368;28;20051;-80
2021/10/27 01:17:54;;;;;;;24.45;16.08;;;;;;;0.09;100.00;93872.50;4973478;28;20085;-81
2021/10/27 01:20:22;;;;;;;22.20;14.15;;;;;;;0.08;100.00;93865.06;4973139;28;20430;-81
2021/10/27 01:22:49;;;;;;;18.55;12.38;;;;;;;0.12;100.00;93871.44;4973600;28;20058;-81
2021/10/27 01:25:16;;;;;;;17.25;12.05;;;;;;;0.07;100.00;93871.03;4973430;28;20055;-81
2021/10/27 01:27:44;;;;;;;17.90;12.25;;;;;;;-0.10;100.00;93844.69;4973426;28;20051;-80
2021/10/27 01:30:14;;;;;;;21.00;11.82;;;;;;;0.04;100.00;93869.56;4973143;28;20047;-80
2021/10/27 01:32:41;;;;;;;16.27;10.43;;;;;;;-0.24;100.00;93831.47;4973219;28;20046;-81
2021/10/27 01:35:09;;;;;;;13.27;9.45;;;;;;;-0.30;100.00;93822.69;4973142;28;20055;-80
2021/10/27 01:37:39;;;;;;;13.05;8.88;;;;;;;-0.10;100.00;93855.56;4972938;28;20055;-80
2021/10/27 01:40:07;;;;;;;14.02;8.20;;;;;;;-0.04;100.00;93871.94;4973398;28;20057;-80
2021/10/27 01:42:34;;;;;;;11.73;8.38;;;;;;;-0.11;100.00;93866.59;4972749;28;20510;-79
2021/10/27 01:45:01;;;;;;;11.85;8.02;;;;;;;-0.12;100.00;93867.53;4973349;28;20055;-81
2021/10/27 01:47:28;;;;;;;12.15;8.32;;;;;;;-0.18;100.00;93856.19;4972755;28;20074;-81
2021/10/27 01:49:55;;;;;;;10.85;8.50;;;;;;;-0.09;100.00;93874.06;4971586;28;20506;-81
2021/10/27 01:52:22;;;;;;;13.00;8.52;;;;;;;-0.16;100.00;93887.19;4972830;28;20051;-81
2021/10/27 01:54:50;;;;;;;13.13;8.35;;;;;;;-0.51;100.00;93847.97;4972190;28;20039;-81
2021/10/27 01:57:18;;;;;;;14.40;8.68;;;;;;;-0.61;100.00;93840.34;4972095;28;20063;-81
2021/10/27 01:59:45;;;;;;;16.02;9.68;;;;;;;-0.43;100.00;93880.16;4972280;28;20042;-81
2021/10/27 02:02:11;;;;;;;13.75;9.63;;;;;;;-0.36;100.00;93888.03;4971535;28;20089;-80
2021/10/27 02:04:38;;;;;;;14.63;9.90;;;;;;;-0.50;100.00;93867.25;4971560;28;20051;-80
2021/10/27 02:07:05;;;;;;;13.15;9.25;;;;;;;-0.48;100.00;93865.38;4972050;28;20050;-80
2021/10/27 02:09:32;;;;;;;15.45;10.40;;;;;;;-0.30;100.00;93885.00;4972075;28;20057;-80
2021/10/27 02:12:00;;;;;;;14.27;9.38;;;;;;;-0.30;100.00;93885.81;4971185;28;20054;-80
2021/10/27 02:14:27;;;;;;;14.00;7.32;;;;;;;-0.48;100.00;93867.91;4972453;28;20046;-80
2021/10/27 02:16:54;;;;;;;11.30;7.43;;;;;;;-0.42;100.00;93881.75;4972097;28;20057;-80
2021/10/27 02:19:21;;;;;;;10.02;6.35;;;;;;;-0.37;100.00;93896.53;4972992;28;20050;-80
2021/10/27 02:21:48;;;;;;;11.73;7.57;;;;;;;-0.57;100.00;93863.59;4972532;28;20046;-80
2021/10/27 02:24:15;;;;;;;9.50;6.45;;;;;;;-0.30;100.00;93900.94;4971946;28;20059;-80
2021/10/27 02:26:42;;;;;;;12.20;8.10;;;;;;;-0.44;100.00;93879.38;4972127;28;20055;-80
2021/10/27 02:29:10;;;;;;;12.95;8.32;;;;;;;-0.38;100.00;93890.66;4972574;28;20057;-80
2021/10/27 02:31:37;;;;;;;12.65;8.95;;;;;;;-0.45;100.00;93902.19;4972554;28;20066;-80
2021/10/27 02:34:04;;;;;;;11.43;7.78;;;;;;;-0.58;100.00;93898.16;4972387;28;20498;-80
2021/10/27 02:36:31;;;;;;;10.88;7.60;;;;;;;-0.62;100.00;93901.84;4972377;28;20054;-81
2021/10/27 02:38:59;;;;;;;13.10;7.32;;;;;;;-0.68;100.00;93893.03;4972194;28;20458;-80
2021/10/27 02:41:26;;;;;;;12.00;8.38;;;;;;;-0.61;100.00;93887.50;4971551;28;20045;-80
2021/10/27 02:43:53;;;;;;;13.43;8.43;;;;;;;-0.83;100.00;93864.00;4971629;28;20054;-80
2021/10/27 02:46:21;;;;;;;13.80;9.27;;;;;;;-0.87;100.00;93860.94;4972444;28;20051;-80
2021/10/27 02:48:48;;;;;;;15.23;9.43;;;;;;;-0.70;100.00;93892.38;4972488;28;20121;-80
2021/10/27 02:51:16;;;;;;;16.35;10.23;;;;;;;-0.63;100.00;93885.09;4971852;28;20054;-79
2021/10/27 02:53:43;;;;;;;16.20;10.45;;;;;;;-0.63;100.00;93889.34;4972271;28;20089;-79
2021/10/27 02:56:10;;;;;;;17.40;10.00;;;;;;;-0.64;100.00;93882.69;4972094;28;20414;-79
2021/10/27 02:58:36;;;;;;;14.20;9.90;;;;;;;-0.81;100.00;93865.50;4972175;28;20055;-80
2021/10/27 03:01:04;;;;;;;18.00;10.05;;;;;;;-0.80;100.00;93881.41;4972227;28;20078;-79
2021/10/27 03:03:32;;;;;;;14.23;9.50;;;;;;;-0.78;100.00;93883.81;4971791;28;20134;-79
2021/10/27 03:05:59;;;;;;;14.23;10.75;;;;;;;-0.95;100.00;93875.88;4971332;28;20050;-79
2021/10/27 03:08:25;;;;;;;15.85;9.80;;;;;;;-0.88;100.00;93883.75;4968706;28;20058;-79
2021/10/27 03:10:52;;;;;;;16.90;10.30;;;;;;;-1.16;100.00;93853.19;4970259;28;20051;-79
2021/10/27 03:13:19;;;;;;;16.15;9.43;;;;;;;-0.94;100.00;93887.56;4969912;28;20506;-79
2021/10/27 03:15:46;;;;;;;17.67;11.13;;;;;;;-1.24;100.00;93864.66;4970593;28;20042;-80
2021/10/27 03:18:13;;;;;;;18.75;12.10;;;;;;;-1.11;100.00;93881.34;4970974;28;20133;-79
2021/10/27 03:20:41;;;;;;;21.73;13.55;;;;;;;-0.96;100.00;93900.28;4970416;28;20046;-79
2021/10/27 03:23:08;;;;;;;17.88;11.48;;;;;;;-0.91;100.00;93899.13;4970799;28;20062;-79
2021/10/27 03:25:35;;;;;;;18.33;11.48;;;;;;;-1.05;100.00;93880.03;4969960;28;20054;-79
2021/10/27 03:28:02;;;;;;;16.00;9.45;;;;;;;-0.97;100.00;93883.56;4970054;28;20058;-79
2021/10/27 03:30:30;;;;;;;13.10;9.23;;;;;;;-0.84;100.00;93900.22;4970053;28;20098;-79
2021/10/27 03:32:57;;;;;;;13.35;8.77;;;;;;;-0.86;100.00;93899.56;4970448;28;20410;-79
2021/10/27 03:35:24;;;;;;;11.48;8.40;;;;;;;-0.89;100.00;93892.25;4970317;28;20082;-79
2021/10/27 03:37:52;;;;;;;17.67;10.82;;;;;;;-0.96;100.00;93895.25;4971063;28;20577;-79
2021/10/27 03:40:19;;;;;;;13.07;8.70;;;;;;;-0.92;100.00;93895.00;4971482;28;20482;-79
2021/10/27 03:42:46;;;;;;;10.57;7.18;;;;;;;-0.95;100.00;93893.53;4970379;28;20050;-79
2021/10/27 03:45:13;;;;;;;11.32;6.85;;;;;;;-1.00;100.00;93896.44;4969952;28;20043;-79
2021/10/27 03:47:40;;;;;;;8.60;6.32;;;;;;;-1.04;100.00;93897.59;4970960;28;20061;-79
2021/10/27 03:50:11;;;;;;;10.02;7.35;;;;;;;-1.12;100.00;93890.63;4971169;28;20058;-79
2021/10/27 03:52:38;;;;;;;9.88;7.68;;;;;;;-1.11;100.00;93904.81;4970540;28;20058;-79
2021/10/27 03:55:07;;;;;;;15.40;11.10;;;;;;;-1.13;100.00;93903.34;4970804;28;20098;-79
2021/10/27 03:57:34;;;;;;;17.42;11.18;;;;;;;-1.19;100.00;93899.59;4970912;28;20062;-79
2021/10/27 04:00:01;;;;;;;18.35;12.05;;;;;;;-1.23;100.00;93901.56;4970577;28;20046;-79
2021/10/27 04:02:28;;;;;;;21.88;14.65;;;;;;;-1.27;100.00;93899.38;4970483;28;20529;-79
2021/10/27 04:04:55;;;;;;;21.52;14.02;;;;;;;-1.31;100.00;93903.88;4970367;28;20051;-79
2021/10/27 04:07:21;;;;;;;27.90;16.63;;;;;;;-1.49;100.00;93881.69;4970769;28;20069;-79
2021/10/27 04:09:48;;;;;;;21.00;14.45;;;;;;;-1.30;100.00;93907.19;4970454;28;20054;-79
2021/10/27 04:12:16;;;;;;;22.30;14.30;;;;;;;-1.36;100.00;93890.81;4970563;28;20057;-79
2021/10/27 04:14:43;;;;;;;21.73;14.55;;;;;;;-1.26;100.00;93904.31;4970626;28;20066;-79
2021/10/27 04:17:10;;;;;;;21.75;13.95;;;;;;;-1.24;100.00;93902.47;4970549;28;20047;-79
2021/10/27 04:19:37;;;;;;;22.90;14.38;;;;;;;-1.25;100.00;93900.88;4970191;28;20061;-79
2021/10/27 04:22:04;;;;;;;23.85;15.02;;;;;;;-1.25;100.00;93900.88;4970540;28;20051;-79
2021/10/27 04:24:31;;;;;;;26.65;14.63;;;;;;;-1.18;100.00;93910.47;4970297;28;20143;-79
2021/10/27 04:26:58;;;;;;;25.75;17.30;;;;;;;-1.21;100.00;93906.47;4970340;28;20120;-79
2021/10/27 04:29:26;;;;;;;22.73;15.80;;;;;;;-1.16;100.00;93911.94;4970561;28;20058;-79
2021/10/27 04:31:53;;;;;;;28.27;18.58;;;;;;;-1.14;100.00;93910.13;4970251;28;20063;-79
2021/10/27 04:34:19;;;;;;;25.20;16.65;;;;;;;-1.10;100.00;93915.72;4970122;28;20047;-78
2021/10/27 04:36:46;;;;;;;28.38;17.48;;;;;;;-1.12;100.00;93913.31;4973625;28;20050;-79
2021/10/27 04:39:13;;;;;;;30.45;18.35;;;;;;;-1.12;100.00;93915.84;4974065;28;20050;-79
2021/10/27 04:41:40;;;;;;;28.60;18.02;;;;;;;-1.18;100.00;93907.94;4973985;28;20055;-79
2021/10/27 04:44:07;;;;;;;26.33;16.05;;;;;;;-1.18;100.00;93918.84;4974302;28;20407;-79
2021/10/27 04:46:35;;;;;;;17.08;11.05;;;;;;;-1.17;100.00;93919.66;4974262;28;20061;-79
2021/10/27 04:49:02;;;;;;;16.83;9.80;;;;;;;-1.23;100.00;93920.91;4973832;28;20553;-78
2021/10/27 04:51:28;;;;;;;15.48;11.32;;;;;;;-1.42;100.00;93909.75;4973810;28;20498;-79
2021/10/27 04:53:55;;;;;;;15.63;11.25;;;;;;;-1.33;100.00;93925.06;4973562;28;20043;-78
2021/10/27 04:56:22;;;;;;;17.88;12.25;;;;;;;-1.45;100.00;93915.03;4973927;28;20059;-78
2021/10/27 04:58:49;;;;;;;20.98;13.05;;;;;;;-1.40;100.00;93933.09;4973890;28;20418;-79
2021/10/27 05:01:16;;;;;;;18.42;11.43;;;;;;;-1.52;100.00;93931.53;4973715;28;20647;-79
2021/10/27 05:03:45;;;;;;;16.33;11.55;;;;;;;-1.56;100.00;93932.69;4973734;28;20055;-79
2021/10/27 05:06:12;;;;;;;20.25;11.52;;;;;;;-1.50;100.00;93942.28;4973889;28;20726;-78
2021/10/27 05:08:39;;;;;;;26.80;15.57;;;;;;;-1.44;100.00;93943.56;4973716;28;20098;-78
2021/10/27 05:11:06;;;;;;;78.43;44.95;;;;;;;-1.50;100.00;93932.22;4973656;28;20043;-79
2021/10/27 05:13:33;;;;;;;45.42;28.42;;;;;;;-1.41;100.00;93951.66;4973701;28;20058;-78
2021/10/27 05:16:00;;;;;;;50.47;29.60;;;;;;;-1.55;100.00;93931.75;4973745;28;20047;-78
2021/10/27 05:18:27;;;;;;;51.25;30.50;;;;;;;-1.37;100.00;93967.34;4973360;28;20498;-79
2021/10/27 05:20:55;;;;;;;61.25;34.53;;;;;;;-1.33;100.00;93957.84;4973225;28;20046;-79
2021/10/27 05:23:23;;;;;;;52.85;32.75;;;;;;;-1.37;100.00;93959.78;4973195;28;20561;-79
2021/10/27 05:25:50;;;;;;;47.47;29.85;;;;;;;-1.42;100.00;93960.16;4973130;28;20086;-78
2021/10/27 05:28:17;;;;;;;48.55;31.00;;;;;;;-1.38;100.00;93961.50;4972996;28;20055;-79
2021/10/27 05:30:43;;;;;;;36.28;21.73;;;;;;;-1.54;100.00;93934.16;4973146;28;20061;-78
2021/10/27 05:33:11;;;;;;;48.25;26.77;;;;;;;-1.32;100.00;93962.75;4973021;28;20051;-78
2021/10/27 05:35:37;;;;;;;44.10;28.02;;;;;;;-1.40;100.00;93950.75;4973179;28;20046;-78
2021/10/27 05:38:05;;;;;;;42.88;25.63;;;;;;;-1.24;100.00;93972.25;4973342;28;20050;-79
2021/10/27 05:40:32;;;;;;;58.75;35.85;;;;;;;-1.49;100.00;93923.72;4972895;28;20054;-78
2021/10/27 05:43:06;;;;;;;55.97;35.13;;;;;;;-1.28;100.00;93951.53;4973026;28;20055;-79
2021/10/27 05:45:33;;;;;;;42.15;25.90;;;;;;;-1.02;100.00;93968.06;4973468;28;20054;-78
2021/10/27 05:48:01;;;;;;;34.40;22.15;;;;;;;-0.95;100.00;93970.00;4971936;28;20057;-78
2021/10/27 05:50:32;;;;;;;30.00;18.38;;;;;;;-1.01;100.00;93957.06;4973117;28;20046;-79
2021/10/27 05:55:46;;;;;;;40.13;25.25;;;;;;;-0.82;100.00;93974.06;4972866;28;20081;-79
2021/10/27 05:58:13;;;;;;;43.50;29.60;;;;;;;-1.05;100.00;93943.09;4972908;28;20046;-79
2021/10/27 06:00:43;;;;;;;49.08;30.27;;;;;;;-0.72;100.00;93979.19;4972860;28;20414;-79
2021/10/27 06:03:10;;;;;;;47.92;28.90;;;;;;;-0.78;100.00;93959.50;4972780;28;20046;-80
2021/10/27 06:05:37;;;;;;;50.15;30.73;;;;;;;-0.66;100.00;93958.50;4972815;28;20055;-80
2021/10/27 06:08:05;;;;;;;62.03;35.20;;;;;;;-0.49;100.00;93982.41;4973054;28;20046;-80
2021/10/27 06:10:33;;;;;;;58.00;33.83;;;;;;;-0.61;100.00;93945.56;4972947;28;20359;-80
2021/10/27 06:13:04;;;;;;;58.42;35.47;;;;;;;-0.39;100.00;93969.84;4972777;28;20092;-80
2021/10/27 06:15:32;;;;;;;65.50;36.20;;;;;;;-0.17;100.00;93983.28;4972532;28;20055;-80
2021/10/27 06:17:59;;;;;;;294.85;181.60;;;;;;;-0.25;100.00;93971.25;4972363;28;20145;-80
2021/10/27 06:20:26;;;;;;;156.48;107.38;;;;;;;-0.04;100.00;93999.00;4972143;28;20570;-80
2021/10/27 06:22:53;;;;;;;88.82;55.30;;;;;;;-0.03;100.00;93980.44;4972414;28;20069;-79
2021/10/27 06:25:20;;;;;;;82.55;51.60;;;;;;;-0.04;100.00;93972.97;4972505;28;20051;-79
2021/10/27 06:27:49;;;;;;;73.38;48.20;;;;;;;0.18;100.00;93984.63;4972309;28;20097;-79
2021/10/27 06:30:22;;;;;;;47.72;31.80;;;;;;;0.38;100.00;94012.53;4971873;28;20058;-79
2021/10/27 06:32:56;;;;;;;50.90;31.35;;;;;;;0.42;100.00;94013.06;4972209;28;20053;-78
2021/10/27 06:35:26;;;;;;;52.60;31.73;;;;;;;0.54;100.00;94012.03;4972241;28;20498;-78
2021/10/27 06:48:55;;;;;;;41.00;24.63;;;;;;;0.98;100.00;94006.72;4964806;28;20592;-79
2021/10/27 06:51:22;;;;;;;41.63;25.98;;;;;;;0.85;100.00;93975.78;4971450;28;20105;-79
2021/10/27 06:53:49;;;;;;;42.00;26.60;;;;;;;1.15;100.00;94009.53;4971488;28;20494;-79
2021/10/27 06:56:17;;;;;;;37.90;26.65;;;;;;;1.05;100.00;93979.13;4971717;28;20146;-79
2021/10/27 06:58:48;;;;;;;36.22;24.23;;;;;;;1.39;100.00;94010.88;4971586;28;20046;-78
2021/10/27 07:01:21;;;;;;;40.88;25.52;;;;;;;1.49;100.00;94003.25;4971442;28;20129;-78
2021/10/27 07:06:53;;;;;;;42.35;26.83;;;;;;;1.71;100.00;94000.44;4951152;28;20055;-79
2021/10/27 07:15:13;;;;;;;49.72;29.45;;;;;;;1.88;100.00;94005.75;4911379;29;20062;-80
2021/10/27 07:17:48;;;;;;;43.28;26.63;;;;;;;1.93;100.00;93997.72;4961652;28;20094;-79
2021/10/27 07:20:15;;;;;;;39.40;26.52;;;;;;;1.98;100.00;93995.59;4971285;28;20105;-79
2021/10/27 07:22:43;;;;;;;45.03;27.35;;;;;;;2.05;100.00;94005.97;4971027;28;20054;-80
2021/10/27 07:25:10;;;;;;;43.85;27.48;;;;;;;2.05;100.00;94003.44;4971063;28;20417;-80
2021/10/27 07:27:37;;;;;;;45.72;28.38;;;;;;;2.06;100.00;93990.66;4971048;28;20054;-80
2021/10/27 07:30:04;;;;;;;49.35;30.25;;;;;;;2.27;100.00;93998.03;4970829;28;20143;-82
2021/10/27 07:32:31;;;;;;;49.17;29.52;;;;;;;2.08;100.00;93972.78;4970826;28;20047;-81
2021/10/27 07:35:03;;;;;;;33.28;21.58;;;;;;;2.30;100.00;93994.44;4970595;28;20057;-83
2021/10/27 07:43:04;;;;;;;34.78;22.88;;;;;;;2.61;100.00;93991.66;4970695;28;20167;-82
2021/10/27 07:45:32;;;;;;;36.28;21.65;;;;;;;2.70;100.00;93992.53;4970696;28;20039;-83
2021/10/27 07:48:00;;;;;;;29.13;19.33;;;;;;;2.60;100.00;93968.94;4970619;28;20054;-83
2021/10/27 07:50:29;;;;;;;29.30;18.65;;;;;;;2.45;100.00;93941.50;4967027;28;20058;-83
2021/10/27 07:52:57;;;;;;;29.52;18.55;;;;;;;3.02;100.00;93996.34;4968725;28;20050;-82
2021/10/27 07:55:24;;;;;;;26.80;18.30;;;;;;;3.25;100.00;93990.88;4970191;28;20082;-83
2021/10/27 07:57:51;;;;;;;25.55;17.67;;;;;;;3.12;100.00;93955.69;4951503;28;20047;-82
2021/10/27 08:00:20;;;;;;;31.90;19.10;;;;;;;3.38;100.00;93982.84;4950964;29;20051;-82
2021/10/27 08:02:47;;;;;;;31.38;18.27;;;;;;;3.50;100.00;93980.91;4950863;29;20070;-83
2021/10/27 08:05:14;;;;;;;32.60;20.23;;;;;;;3.47;100.00;93951.50;4951209;29;20452;-83
2021/10/27 08:07:48;;;;;;;29.52;17.10;;;;;;;3.71;100.00;93969.63;4951023;29;20051;-83
2021/10/27 08:10:16;;;;;;;22.05;16.55;;;;;;;3.96;100.00;94000.28;4950264;28;20553;-83
2021/10/27 08:12:44;;;;;;;23.65;16.50;;;;;;;4.12;100.00;93994.53;4950867;29;20047;-83
2021/10/27 08:15:12;;;;;;;28.73;18.45;;;;;;;3.86;100.00;93926.69;4951239;29;20055;-83
2021/10/27 08:17:40;;;;;;;19.20;14.18;;;;;;;4.53;100.00;93991.34;4951108;29;20052;-83
2021/10/27 08:20:09;;;;;;;27.08;16.52;;;;;;;4.66;100.00;93980.75;4950840;29;20053;-83
2021/10/27 08:22:37;;;;;;;37.28;21.08;;;;;;;4.74;100.00;93931.63;4950612;29;20070;-83
2021/10/27 08:25:14;;;;;;;27.95;18.40;;;;;;;5.21;100.00;93978.66;4951116;29;20058;-83
2021/10/27 08:27:41;;;;;;;24.88;16.73;;;;;;;5.53;100.00;93978.84;4950871;29;20086;-84
2021/10/27 08:30:13;;;;;;;18.17;11.80;;;;;;;5.62;100.00;93978.69;4950808;29;21760;-84
2021/10/27 08:32:48;;;;;;;18.95;13.75;;;;;;;5.62;100.00;93977.91;4950914;28;20191;-84
2021/10/27 08:35:15;;;;;;;20.27;14.25;;;;;;;5.12;100.00;93887.91;4950889;29;20431;-84
2021/10/27 08:37:44;;;;;;;23.75;14.15;;;;;;;5.39;100.00;93906.41;4950766;29;20047;-85
2021/10/27 08:40:14;;;;;;;19.00;13.00;;;;;;;6.07;100.00;93975.03;4950722;29;20082;-85
2021/10/27 08:42:42;;;;;;;22.00;15.43;;;;;;;6.12;100.00;93971.00;4950831;29;20411;-85
2021/10/27 08:45:09;;;;;;;21.70;14.40;;;;;;;5.90;100.00;93908.72;4951257;29;20059;-85
2021/10/27 08:47:38;;;;;;;19.58;12.77;;;;;;;6.03;100.00;93904.88;4953795;28;20057;-86
2021/10/27 08:50:06;;;;;;;16.08;10.27;;;;;;;6.52;98.80;93973.63;4953372;28;20142;-86
2021/10/27 08:52:34;;;;;;;22.90;12.32;;;;;;;6.11;98.48;93894.66;4949233;28;20051;-86
2021/10/27 08:55:04;;;;;;;18.90;13.50;;;;;;;6.66;100.00;93948.34;4951559;28;20463;-87
2021/10/27 08:57:32;;;;;;;23.73;15.00;;;;;;;7.01;99.37;93955.66;4967769;28;20122;-86
2021/10/27 09:00:05;;;;;;;21.98;14.15;;;;;;;6.54;98.36;93850.94;4971124;28;20129;-86
2021/10/27 09:05:44;;;;;;;19.42;13.18;;;;;;;6.63;93.78;93826.94;4969882;28;20089;-86
2021/10/27 09:34:13;;;;;;;18.85;11.38;;;;;;;8.65;90.15;93931.34;4978627;28;20812;-84
2021/10/27 09:37:16;;;;;;;15.98;11.32;;;;;;;9.00;87.50;93946.13;4978553;28;20043;-84
2021/10/27 09:40:14;;;;;;;17.25;10.73;;;;;;;8.85;83.72;93910.31;4975283;28;20121;-84
2021/10/27 10:05:23;;;;;;;10.18;8.23;;;;;;;9.92;80.14;93908.81;4977104;28;21312;-84
2021/10/27 10:07:51;;;;;;;11.27;8.30;;;;;;;9.25;79.49;93814.25;4977749;28;20039;-84
2021/10/27 10:10:19;;;;;;;11.95;7.57;;;;;;;9.73;78.73;93859.75;4977358;28;20042;-84
2021/10/27 10:12:48;;;;;;;45.08;19.95;;;;;;;9.88;76.91;93895.56;4977749;28;20078;-84
2021/10/27 10:15:17;;;;;;;20.70;10.70;;;;;;;10.05;75.71;93906.31;4978823;28;20130;-84
2021/10/27 10:17:46;;;;;;;13.30;9.00;;;;;;;9.57;76.86;93881.31;4978316;28;20078;-84
2021/10/27 10:20:15;;;;;;;12.95;8.70;;;;;;;9.76;77.49;93905.53;4978002;28;20054;-85
2021/10/27 10:22:44;;;;;;;14.85;9.20;;;;;;;9.09;77.57;93822.00;4977540;28;20058;-84
2021/10/27 10:25:32;;;;;;;10.63;7.47;;;;;;;9.95;78.21;93898.94;4977908;28;20047;-84
2021/10/27 10:28:16;;;;;;;11.95;7.60;;;;;;;10.03;75.75;93885.19;4977785;28;20039;-85
2021/10/27 10:30:50;;;;;;;12.32;8.30;;;;;;;9.97;76.73;93889.31;4978171;28;20064;-84
2021/10/27 10:33:18;;;;;;;13.07;8.05;;;;;;;9.72;73.98;93824.81;4977286;28;20065;-84
2021/10/27 10:35:58;;;;;;;20.73;11.50;;;;;;;10.26;74.61;93879.78;4977254;28;20494;-84
2021/10/27 10:41:52;;;;;;;10.05;6.95;;;;;;;9.97;72.55;93812.31;4947968;28;20050;-85
2021/10/27 10:44:39;;;;;;;7.38;5.75;;;;;;;10.20;71.12;93812.97;4977042;28;20141;-84
2021/10/27 11:25:54;;;;;;;14.40;7.50;;;;;;;10.95;64.58;93789.06;4975482;28;20059;-86
2021/10/27 11:48:11;;;;;;;6.15;4.50;;;;;;;11.88;63.62;93853.47;4956048;28;20043;-85
2021/10/27 11:50:41;;;;;;;14.07;9.82;;;;;;;11.25;63.92;93793.78;4977104;28;20066;-84
2021/10/27 11:53:18;;;;;;;9.75;5.30;;;;;;;11.73;64.15;93843.41;4976900;28;20046;-85
2021/10/27 11:55:45;;;;;;;13.93;10.48;;;;;;;11.43;63.51;93785.47;4976809;28;20066;-85
2021/10/27 11:58:13;;;;;;;14.57;9.18;;;;;;;11.34;63.34;93799.53;4977149;28;20062;-85
2021/10/27 12:00:43;;;;;;;20.38;10.70;;;;;;;11.50;64.18;93832.53;4976862;28;20117;-84
2021/10/27 12:03:13;;;;;;;32.13;16.20;;;;;;;11.01;66.73;93767.69;4976944;28;20230;-84
2021/10/27 12:05:46;;;;;;;54.20;23.05;;;;;;;11.71;66.07;93840.25;4977171;28;20043;-84
2021/10/27 12:11:16;;;;;;;39.53;18.58;;;;;;;11.33;66.18;93836.53;4974256;28;20387;-85
2021/10/27 12:13:53;;;;;;;21.73;11.57;;;;;;;11.29;64.92;93815.56;4977795;28;20057;-84
2021/10/27 12:19:27;;;;;;;15.18;7.35;;;;;;;10.96;66.00;93773.44;4930368;28;20407;-84
2021/10/27 12:21:56;;;;;;;28.45;13.77;;;;;;;11.59;66.13;93832.34;4976429;28;20453;-84
2021/10/27 12:24:26;;;;;;;43.95;19.05;;;;;;;11.59;64.00;93829.78;4976895;28;20053;-85
2021/10/27 12:27:01;;;;;;;40.13;16.48;;;;;;;11.34;63.51;93777.16;4977022;28;20397;-85
2021/10/27 12:29:30;;;;;;;36.92;15.50;;;;;;;11.62;63.48;93781.28;4976964;28;20101;-85
2021/10/27 12:32:13;;;;;;;62.95;25.65;;;;;;;11.89;63.04;93837.84;4976243;28;20088;-85
2021/10/27 12:34:49;;;;;;;13.82;7.30;;;;;;;11.70;63.98;93800.84;4975652;28;20050;-85
2021/10/27 12:37:32;;;;;;;;;;;;;;;11.99;59.37;93834.06;4976320;28;20504;-85
2021/10/27 12:40:18;;;;;;;31.58;15.07;;;;;;;11.38;62.59;93748.50;4975720;28;19976;-84
2021/10/27 12:42:46;;;;;;;28.50;13.77;;;;;;;11.57;63.42;93764.88;4976955;28;20047;-85
2021/10/27 12:45:13;;;;;;;10.70;5.78;;;;;;;12.12;61.78;93828.09;4976043;28;20050;-85
2021/10/27 12:47:41;;;;;;;8.48;5.28;;;;;;;11.68;62.01;93769.41;4976849;28;20486;-86
2021/10/27 12:50:12;;;;;;;10.43;6.60;;;;;;;11.58;63.38;93741.50;4976407;28;20513;-85
2021/10/27 12:52:43;;;;;;;30.48;14.02;;;;;;;11.75;64.23;93775.31;4976438;28;20154;-86
2021/10/27 12:55:13;;;;;;;9.05;6.13;;;;;;;11.44;64.83;93763.13;4976469;28;20061;-85
2021/10/27 12:57:48;;;;;;;75.90;33.90;;;;;;;11.61;65.94;93774.56;4978985;28;20057;-85
2021/10/27 13:00:19;;;;;;;20.40;10.27;;;;;;;11.39;63.51;93758.56;4976976;28;20066;-85
2021/10/27 13:03:00;;;;;;;20.20;9.13;;;;;;;12.00;64.71;93817.63;4978041;28;20301;-85
2021/10/27 13:05:31;;;;;;;35.63;15.55;;;;;;;11.67;64.55;93797.91;4978786;28;20065;-85
2021/10/27 13:08:05;;;;;;;19.80;9.35;;;;;;;11.39;66.77;93783.50;4979838;28;20046;-85
2021/10/27 13:10:39;;;;;;;64.05;27.35;;;;;;;11.20;66.45;93735.25;4979900;28;20054;-86
2021/10/27 13:13:19;;;;;;;73.18;30.42;;;;;;;11.75;67.16;93821.63;4979983;28;20069;-85
2021/10/27 13:15:57;;;;;;;23.75;11.40;;;;;;;11.84;66.31;93829.13;4979741;28;20073;-86
2021/10/27 13:18:43;;;;;;;8.85;6.03;;;;;;;11.38;66.38;93741.53;4979819;28;20097;-86
2021/10/27 13:21:28;;;;;;;22.85;10.45;;;;;;;11.62;65.91;93789.00;4979570;28;20057;-85
2021/10/27 13:29:39;;;;;;;16.42;8.13;;;;;;;11.75;65.83;93819.06;4946458;28;20055;-85
2021/10/27 13:32:09;;;;;;;48.85;20.83;;;;;;;11.11;65.84;93738.25;4979481;28;20058;-86
2021/10/27 13:34:37;;;;;;;21.67;9.75;;;;;;;11.36;66.32;93784.69;4979777;28;20049;-85
2021/10/27 13:37:06;;;;;;;11.43;6.50;;;;;;;11.61;64.72;93828.59;4979377;28;21343;-85
2021/10/27 13:39:33;;;;;;;11.38;6.35;;;;;;;11.71;65.48;93833.31;4979613;28;20054;-84
2021/10/27 13:42:05;;;;;;;26.63;11.45;;;;;;;11.43;65.47;93808.63;4978895;28;20073;-88
2021/10/27 13:44:38;;;;;;;7.45;4.78;;;;;;;11.57;65.48;93827.41;4979328;28;20050;-83
2021/10/27 13:47:17;;;;;;;28.73;12.25;;;;;;;11.16;65.77;93746.16;4979500;28;20402;-83
2021/10/27 13:49:56;;;;;;;19.05;9.45;;;;;;;11.52;66.20;93780.91;4979358;28;20450;-85
2021/10/27 13:58:21;;;;;;;40.83;20.30;;;;;;;11.71;68.13;93815.31;4959431;28;20065;-83
2021/10/27 14:06:22;;;;;;;11.68;7.78;;;;;;;11.43;67.75;93756.41;4959021;28;21253;-86
2021/10/27 14:08:53;;;;;;;14.25;9.43;;;;;;;11.79;67.79;93816.09;4958615;28;20138;-84
2021/10/27 14:11:27;;;;;;;10.90;7.10;;;;;;;11.68;67.91;93802.06;4959558;28;20463;-85